Ana Sayfa
METAR-TAF:

METAR-TAF

Havaalanları :

Woodward, Oklahoma, Amerika Birleşik Devletleri

Enlem: 36-26-12N, Boylam: 099-31-16W, yükseklik: 667 m

Güncel hava durumu gözlemi

Rapor saat 02:10 UTC de 32 dakika önce yapıldı.
Rüzgar güneydan 14 kt
Sıcaklık 30°C
Nem 38%
Basınç 1017 hPa
Görüş mesafesi: 16.1 km
Açık gökyüzü

METAR: KWWR 130210Z AUTO 17014KT 10SM CLR 30/14 A3002 RMK AO2

Saat: 21:42 (02:42 UTC)

Tahmin

Rapor saat 23:22 UTC de 3 saat ve 20 dakika önce yapıldı.
Ayın 13'si saat 00 UTC'den ayın 13'si saat 24 UTC'ye kadar geçerli Tahmin
Rüzgar güneydan 15 kt ve 24 kt'a kadar ani rüzgarlar
Görüş mesafesi: 10 km
15000 ft yükseklikte parçalı bulutlu

TAF: KWWR 122322Z 1300/1324 18015G24KT P6SM SCT150

4.000'den fazla havaalanı için hava durumu gözlemleri ve tahminleri (METAR ve TAF raporları).

Kullanılabilir istasyonlar harita üzerinde sarı ve kırmızı noktalarla gösterilir.

İstasyonun adını görmek için fareyi noktanın üzerinde gezdirin.

Sonrasında hava gözlem ve tahminlerini görmek için tıklayın.

Haritayı değiştirmek için: yaklaştırmak için siyah artı işaretli yeşil düğmeye ve uzaklaştırmak için de eksi işaretli düğmeye hızla tıklayın; bitişik haritalar için yeşil okları kullanın.


METAR-TAF: